sensor_id;sensor_type;location;lat;lon;timestamp;pressure;altitude;pressure_sealevel;temperature;humidity
52291;BME280;39663;45.432;28.050;2022-07-03T00:06:35;101595.24;;;26.96;36.87
52291;BME280;39663;45.432;28.050;2022-07-03T00:07:07;101594.54;;;27.16;36.87
52291;BME280;39663;45.432;28.050;2022-07-03T00:07:39;101592.96;;;27.04;36.84
52291;BME280;39663;45.432;28.050;2022-07-03T00:08:10;101591.70;;;27.06;36.73
52291;BME280;39663;45.432;28.050;2022-07-03T00:08:42;101591.43;;;27.01;36.85
52291;BME280;39663;45.432;28.050;2022-07-03T00:09:14;101591.90;;;27.08;36.72
52291;BME280;39663;45.432;28.050;2022-07-03T00:09:45;101591.58;;;27.48;36.71
52291;BME280;39663;45.432;28.050;2022-07-03T00:10:17;101593.38;;;27.18;36.62
52291;BME280;39663;45.432;28.050;2022-07-03T00:10:48;101591.16;;;26.99;36.64
52291;BME280;39663;45.432;28.050;2022-07-03T00:11:21;101591.15;;;27.21;36.62
52291;BME280;39663;45.432;28.050;2022-07-03T00:11:52;101590.54;;;27.21;36.57
52291;BME280;39663;45.432;28.050;2022-07-03T00:12:24;101591.21;;;27.26;36.56
52291;BME280;39663;45.432;28.050;2022-07-03T00:12:55;101589.64;;;27.31;36.52
52291;BME280;39663;45.432;28.050;2022-07-03T00:13:27;101590.41;;;27.25;36.55
52291;BME280;39663;45.432;28.050;2022-07-03T00:13:58;101588.77;;;27.31;36.49
52291;BME280;39663;45.432;28.050;2022-07-03T00:30:58;101563.46;;;27.00;36.87
52291;BME280;39663;45.432;28.050;2022-07-03T00:31:32;101564.40;;;27.38;36.77
52291;BME280;39663;45.432;28.050;2022-07-03T00:32:06;101566.87;;;27.39;37.30
52291;BME280;39663;45.432;28.050;2022-07-03T00:32:39;101567.64;;;27.58;37.25
52291;BME280;39663;45.432;28.050;2022-07-03T00:33:13;101568.24;;;27.41;36.96
52291;BME280;39663;45.432;28.050;2022-07-03T00:33:45;101567.75;;;27.57;37.20
52291;BME280;39663;45.432;28.050;2022-07-03T00:34:17;101568.09;;;27.45;37.01
52291;BME280;39663;45.432;28.050;2022-07-03T00:34:51;101568.06;;;27.71;36.93
52291;BME280;39663;45.432;28.050;2022-07-03T00:35:23;101568.10;;;27.23;36.77
52291;BME280;39663;45.432;28.050;2022-07-03T00:35:55;101567.09;;;27.17;37.04
52291;BME280;39663;45.432;28.050;2022-07-03T00:36:30;101568.21;;;27.15;37.33
52291;BME280;39663;45.432;28.050;2022-07-03T00:37:07;101567.94;;;27.24;37.12
52291;BME280;39663;45.432;28.050;2022-07-03T00:37:38;101567.60;;;27.57;37.09
52291;BME280;39663;45.432;28.050;2022-07-03T00:38:11;101566.84;;;27.42;37.29
52291;BME280;39663;45.432;28.050;2022-07-03T00:38:42;101568.42;;;27.46;37.08
52291;BME280;39663;45.432;28.050;2022-07-03T00:39:14;101566.64;;;27.67;37.85
52291;BME280;39663;45.432;28.050;2022-07-03T00:39:46;101566.29;;;27.67;38.09
52291;BME280;39663;45.432;28.050;2022-07-03T00:40:18;101566.29;;;27.47;38.05
52291;BME280;39663;45.432;28.050;2022-07-03T00:40:50;101564.87;;;27.64;38.40
52291;BME280;39663;45.432;28.050;2022-07-03T00:41:26;101562.55;;;27.51;37.71
52291;BME280;39663;45.432;28.050;2022-07-03T00:42:01;101563.79;;;27.39;38.11
52291;BME280;39663;45.432;28.050;2022-07-03T00:42:35;101561.54;;;27.25;38.65
52291;BME280;39663;45.432;28.050;2022-07-03T00:43:09;101560.39;;;27.67;38.18
52291;BME280;39663;45.432;28.050;2022-07-03T00:43:41;101559.28;;;27.47;38.08
52291;BME280;39663;45.432;28.050;2022-07-03T00:44:13;101559.55;;;27.58;38.36
52291;BME280;39663;45.432;28.050;2022-07-03T00:44:46;101560.33;;;27.72;38.70
52291;BME280;39663;45.432;28.050;2022-07-03T00:45:20;101558.65;;;27.42;38.37
52291;BME280;39663;45.432;28.050;2022-07-03T00:45:51;101554.57;;;27.50;38.47
52291;BME280;39663;45.432;28.050;2022-07-03T00:46:25;101553.45;;;27.66;38.52
52291;BME280;39663;45.432;28.050;2022-07-03T00:46:58;101556.33;;;27.50;38.86
52291;BME280;39663;45.432;28.050;2022-07-03T00:47:31;101557.11;;;27.46;39.02
52291;BME280;39663;45.432;28.050;2022-07-03T00:48:07;101556.79;;;27.26;39.23
52291;BME280;39663;45.432;28.050;2022-07-03T00:48:46;101555.56;;;27.61;39.51
52291;BME280;39663;45.432;28.050;2022-07-03T00:49:20;101554.87;;;27.41;39.56
52291;BME280;39663;45.432;28.050;2022-07-03T00:49:55;101552.96;;;27.55;39.74
52291;BME280;39663;45.432;28.050;2022-07-03T00:50:33;101553.49;;;27.13;39.86
52291;BME280;39663;45.432;28.050;2022-07-03T00:51:06;101551.11;;;27.52;39.90
52291;BME280;39663;45.432;28.050;2022-07-03T00:51:39;101550.18;;;27.50;39.86
52291;BME280;39663;45.432;28.050;2022-07-03T00:52:13;101550.27;;;27.64;39.53
52291;BME280;39663;45.432;28.050;2022-07-03T00:52:46;101546.93;;;27.49;39.60
52291;BME280;39663;45.432;28.050;2022-07-03T00:53:22;101547.04;;;27.47;39.63
52291;BME280;39663;45.432;28.050;2022-07-03T00:53:57;101545.52;;;27.70;39.47
52291;BME280;39663;45.432;28.050;2022-07-03T00:54:33;101545.33;;;27.54;39.81
52291;BME280;39663;45.432;28.050;2022-07-03T00:55:09;101541.42;;;27.49;39.69
52291;BME280;39663;45.432;28.050;2022-07-03T00:55:45;101541.95;;;27.71;39.56
52291;BME280;39663;45.432;28.050;2022-07-03T00:56:22;101542.28;;;27.27;39.79
52291;BME280;39663;45.432;28.050;2022-07-03T00:56:55;101542.99;;;27.58;39.98
52291;BME280;39663;45.432;28.050;2022-07-03T00:57:31;101542.24;;;27.16;40.09
52291;BME280;39663;45.432;28.050;2022-07-03T00:58:02;101543.64;;;27.55;40.04
52291;BME280;39663;45.432;28.050;2022-07-03T00:58:33;101541.67;;;27.66;39.84
52291;BME280;39663;45.432;28.050;2022-07-03T00:59:05;101539.92;;;27.23;39.77
52291;BME280;39663;45.432;28.050;2022-07-03T00:59:37;101542.29;;;27.42;39.82
52291;BME280;39663;45.432;28.050;2022-07-03T01:00:11;101544.53;;;27.34;39.95
52291;BME280;39663;45.432;28.050;2022-07-03T01:00:43;101543.32;;;27.33;40.00
52291;BME280;39663;45.432;28.050;2022-07-03T01:01:19;101547.83;;;27.42;40.19
52291;BME280;39663;45.432;28.050;2022-07-03T01:01:57;101548.65;;;27.18;40.38
52291;BME280;39663;45.432;28.050;2022-07-03T01:02:40;101548.42;;;27.48;40.21
52291;BME280;39663;45.432;28.050;2022-07-03T01:03:19;101549.83;;;27.37;40.39
52291;BME280;39663;45.432;28.050;2022-07-03T01:04:03;101549.62;;;27.38;40.36
52291;BME280;39663;45.432;28.050;2022-07-03T01:04:44;101551.68;;;27.24;40.56
52291;BME280;39663;45.432;28.050;2022-07-03T01:05:23;101552.65;;;27.26;40.48
52291;BME280;39663;45.432;28.050;2022-07-03T01:06:07;101553.50;;;27.66;40.48
52291;BME280;39663;45.432;28.050;2022-07-03T01:06:51;101553.63;;;27.35;40.65
52291;BME280;39663;45.432;28.050;2022-07-03T01:07:35;101552.35;;;27.60;40.67
52291;BME280;39663;45.432;28.050;2022-07-03T01:08:14;101555.44;;;27.13;40.68
52291;BME280;39663;45.432;28.050;2022-07-03T01:08:51;101556.95;;;27.14;40.95
52291;BME280;39663;45.432;28.050;2022-07-03T01:09:34;101558.20;;;26.99;40.97
52291;BME280;39663;45.432;28.050;2022-07-03T01:10:11;101556.73;;;27.53;40.70
52291;BME280;39663;45.432;28.050;2022-07-03T01:10:49;101556.95;;;27.32;40.85
52291;BME280;39663;45.432;28.050;2022-07-03T01:11:28;101558.51;;;27.48;40.97
52291;BME280;39663;45.432;28.050;2022-07-03T01:12:06;101557.92;;;27.36;40.75
52291;BME280;39663;45.432;28.050;2022-07-03T01:12:53;101559.22;;;27.44;41.13
52291;BME280;39663;45.432;28.050;2022-07-03T01:13:35;101558.56;;;27.32;41.17
52291;BME280;39663;45.432;28.050;2022-07-03T01:14:31;101558.41;;;27.11;41.24
52291;BME280;39663;45.432;28.050;2022-07-03T01:15:09;101556.19;;;27.29;41.34
52291;BME280;39663;45.432;28.050;2022-07-03T01:15:49;101554.77;;;27.26;41.31
52291;BME280;39663;45.432;28.050;2022-07-03T01:16:27;101556.27;;;27.16;41.17
52291;BME280;39663;45.432;28.050;2022-07-03T01:17:03;101555.03;;;27.34;41.07
52291;BME280;39663;45.432;28.050;2022-07-03T01:17:39;101556.71;;;27.15;41.18
52291;BME280;39663;45.432;28.050;2022-07-03T01:18:27;101554.81;;;27.39;41.05
52291;BME280;39663;45.432;28.050;2022-07-03T01:19:15;101554.93;;;27.21;41.10
52291;BME280;39663;45.432;28.050;2022-07-03T01:19:50;101554.45;;;27.39;41.10
52291;BME280;39663;45.432;28.050;2022-07-03T01:20:28;101554.87;;;27.19;41.45
52291;BME280;39663;45.432;28.050;2022-07-03T01:21:06;101552.81;;;27.21;41.35
52291;BME280;39663;45.432;28.050;2022-07-03T01:21:42;101552.69;;;26.90;41.58
52291;BME280;39663;45.432;28.050;2022-07-03T01:22:30;101552.99;;;27.14;41.55
52291;BME280;39663;45.432;28.050;2022-07-03T01:23:03;101556.97;;;26.84;42.06
52291;BME280;39663;45.432;28.050;2022-07-03T01:24:02;101558.48;;;26.43;42.21
52291;BME280;39663;45.432;28.050;2022-07-03T01:24:47;101557.26;;;26.84;42.48
52291;BME280;39663;45.432;28.050;2022-07-03T01:25:25;101555.98;;;26.71;42.86
52291;BME280;39663;45.432;28.050;2022-07-03T01:25:59;101555.15;;;26.72;42.63
52291;BME280;39663;45.432;28.050;2022-07-03T01:26:38;101556.05;;;26.80;42.54
52291;BME280;39663;45.432;28.050;2022-07-03T01:27:16;101554.10;;;26.85;42.50
52291;BME280;39663;45.432;28.050;2022-07-03T01:27:58;101552.86;;;26.66;42.53
52291;BME280;39663;45.432;28.050;2022-07-03T01:28:32;101552.09;;;26.80;42.63
52291;BME280;39663;45.432;28.050;2022-07-03T01:29:09;101552.69;;;26.85;42.54
52291;BME280;39663;45.432;28.050;2022-07-03T01:29:52;101554.76;;;26.82;42.60
52291;BME280;39663;45.432;28.050;2022-07-03T01:30:29;101552.78;;;26.85;42.62
52291;BME280;39663;45.432;28.050;2022-07-03T01:31:02;101551.55;;;26.67;42.86
52291;BME280;39663;45.432;28.050;2022-07-03T01:31:33;101552.22;;;26.72;42.92
52291;BME280;39663;45.432;28.050;2022-07-03T01:32:10;101552.57;;;26.64;43.04
52291;BME280;39663;45.432;28.050;2022-07-03T01:32:45;101552.94;;;26.61;43.14
52291;BME280;39663;45.432;28.050;2022-07-03T01:33:19;101553.93;;;26.55;43.24
52291;BME280;39663;45.432;28.050;2022-07-03T01:33:51;101556.53;;;26.63;43.49
52291;BME280;39663;45.432;28.050;2022-07-03T01:34:27;101556.72;;;26.57;43.63
52291;BME280;39663;45.432;28.050;2022-07-03T01:35:01;101559.84;;;26.33;44.12
52291;BME280;39663;45.432;28.050;2022-07-03T01:35:34;101560.88;;;26.21;44.07
52291;BME280;39663;45.432;28.050;2022-07-03T01:36:07;101561.09;;;26.47;44.04
52291;BME280;39663;45.432;28.050;2022-07-03T01:36:43;101556.49;;;26.52;43.98
52291;BME280;39663;45.432;28.050;2022-07-03T01:37:15;101560.17;;;26.30;44.37
52291;BME280;39663;45.432;28.050;2022-07-03T01:37:51;101558.65;;;26.05;44.39
52291;BME280;39663;45.432;28.050;2022-07-03T01:38:23;101560.27;;;26.10;44.83
52291;BME280;39663;45.432;28.050;2022-07-03T01:39:00;101562.23;;;25.95;44.62
52291;BME280;39663;45.432;28.050;2022-07-03T01:39:34;101562.70;;;26.02;44.81
52291;BME280;39663;45.432;28.050;2022-07-03T01:40:08;101562.62;;;25.93;45.04
52291;BME280;39663;45.432;28.050;2022-07-03T01:40:41;101562.87;;;25.80;45.39
52291;BME280;39663;45.432;28.050;2022-07-03T01:41:13;101562.53;;;25.57;45.30
52291;BME280;39663;45.432;28.050;2022-07-03T01:41:45;101562.13;;;25.77;44.94
52291;BME280;39663;45.432;28.050;2022-07-03T01:42:19;101561.62;;;25.80;45.27
52291;BME280;39663;45.432;28.050;2022-07-03T01:42:52;101561.09;;;25.81;45.03
52291;BME280;39663;45.432;28.050;2022-07-03T01:43:27;101561.78;;;26.11;44.72
52291;BME280;39663;45.432;28.050;2022-07-03T01:44:01;101561.06;;;25.92;44.68
52291;BME280;39663;45.432;28.050;2022-07-03T01:44:33;101560.30;;;26.35;44.63
52291;BME280;39663;45.432;28.050;2022-07-03T01:45:08;101559.20;;;26.47;44.47
52291;BME280;39663;45.432;28.050;2022-07-03T01:45:43;101559.10;;;26.32;44.32
52291;BME280;39663;45.432;28.050;2022-07-03T01:46:17;101558.70;;;26.08;44.41
52291;BME280;39663;45.432;28.050;2022-07-03T01:46:49;101557.32;;;26.11;44.29
52291;BME280;39663;45.432;28.050;2022-07-03T01:47:24;101556.25;;;26.49;44.30
52291;BME280;39663;45.432;28.050;2022-07-03T01:47:58;101555.50;;;26.29;44.20
52291;BME280;39663;45.432;28.050;2022-07-03T01:48:31;101558.88;;;26.31;44.26
52291;BME280;39663;45.432;28.050;2022-07-03T01:49:03;101556.07;;;26.24;44.42
52291;BME280;39663;45.432;28.050;2022-07-03T01:49:38;101557.32;;;26.37;44.57
52291;BME280;39663;45.432;28.050;2022-07-03T01:50:14;101558.11;;;26.14;44.53
52291;BME280;39663;45.432;28.050;2022-07-03T01:50:46;101556.55;;;26.21;44.49
52291;BME280;39663;45.432;28.050;2022-07-03T01:51:18;101555.57;;;26.10;44.69
52291;BME280;39663;45.432;28.050;2022-07-03T01:51:51;101555.35;;;25.95;44.94
52291;BME280;39663;45.432;28.050;2022-07-03T01:52:25;101554.23;;;25.70;45.43
52291;BME280;39663;45.432;28.050;2022-07-03T01:53:00;101554.11;;;25.84;45.45
52291;BME280;39663;45.432;28.050;2022-07-03T01:53:32;101550.42;;;25.87;45.04
52291;BME280;39663;45.432;28.050;2022-07-03T01:54:05;101550.75;;;26.02;44.85
52291;BME280;39663;45.432;28.050;2022-07-03T01:54:39;101552.30;;;26.11;44.72
52291;BME280;39663;45.432;28.050;2022-07-03T01:55:16;101551.44;;;25.94;44.69
52291;BME280;39663;45.432;28.050;2022-07-03T01:55:50;101550.40;;;26.14;44.56
52291;BME280;39663;45.432;28.050;2022-07-03T01:56:24;101549.39;;;26.25;44.59
52291;BME280;39663;45.432;28.050;2022-07-03T01:57:41;101549.87;;;25.96;44.45
52291;BME280;39663;45.432;28.050;2022-07-03T01:58:12;101548.30;;;26.07;44.59
52291;BME280;39663;45.432;28.050;2022-07-03T01:58:44;101548.79;;;26.08;44.57
52291;BME280;39663;45.432;28.050;2022-07-03T01:59:16;101548.46;;;25.99;44.70
52291;BME280;39663;45.432;28.050;2022-07-03T01:59:47;101548.92;;;25.97;44.69
52291;BME280;39663;45.432;28.050;2022-07-03T02:00:20;101548.24;;;25.88;44.78
52291;BME280;39663;45.432;28.050;2022-07-03T02:00:59;101547.76;;;25.98;45.03
52291;BME280;39663;45.432;28.050;2022-07-03T02:01:37;101548.44;;;25.91;44.82
52291;BME280;39663;45.432;28.050;2022-07-03T02:02:19;101547.85;;;25.75;45.09
52291;BME280;39663;45.432;28.050;2022-07-03T02:02:57;101549.29;;;25.96;45.01
52291;BME280;39663;45.432;28.050;2022-07-03T02:03:30;101548.71;;;26.04;44.89
52291;BME280;39663;45.432;28.050;2022-07-03T02:04:16;101548.20;;;25.80;45.04
52291;BME280;39663;45.432;28.050;2022-07-03T02:04:58;101548.62;;;26.03;44.93
52291;BME280;39663;45.432;28.050;2022-07-03T02:05:41;101547.53;;;25.81;44.97
52291;BME280;39663;45.432;28.050;2022-07-03T02:06:20;101548.27;;;26.04;44.94
52291;BME280;39663;45.432;28.050;2022-07-03T02:07:02;101548.26;;;25.95;44.76
52291;BME280;39663;45.432;28.050;2022-07-03T02:07:54;101547.78;;;25.96;44.76
52291;BME280;39663;45.432;28.050;2022-07-03T02:08:39;101548.82;;;26.17;44.75
52291;BME280;39663;45.432;28.050;2022-07-03T02:09:21;101552.71;;;25.94;44.82
52291;BME280;39663;45.432;28.050;2022-07-03T02:10:03;101552.78;;;26.09;44.74
52291;BME280;39663;45.432;28.050;2022-07-03T02:10:40;101553.60;;;26.00;44.91
52291;BME280;39663;45.432;28.050;2022-07-03T02:11:15;101554.35;;;25.97;44.82
52291;BME280;39663;45.432;28.050;2022-07-03T02:12:10;101555.97;;;26.20;44.65
52291;BME280;39663;45.432;28.050;2022-07-03T02:12:51;101557.15;;;25.93;44.76
52291;BME280;39663;45.432;28.050;2022-07-03T02:13:29;101556.63;;;25.66;44.92
52291;BME280;39663;45.432;28.050;2022-07-03T02:14:14;101553.90;;;26.08;44.92
52291;BME280;39663;45.432;28.050;2022-07-03T02:14:57;101553.93;;;26.14;44.99
52291;BME280;39663;45.432;28.050;2022-07-03T02:15:35;101552.53;;;25.85;45.00
52291;BME280;39663;45.432;28.050;2022-07-03T02:16:08;101553.13;;;25.89;45.01
52291;BME280;39663;45.432;28.050;2022-07-03T02:16:50;101554.13;;;25.88;45.06
52291;BME280;39663;45.432;28.050;2022-07-03T02:17:22;101552.37;;;26.01;45.16
52291;BME280;39663;45.432;28.050;2022-07-03T02:17:55;101552.23;;;25.96;45.02
52291;BME280;39663;45.432;28.050;2022-07-03T02:18:31;101554.27;;;26.02;45.15
52291;BME280;39663;45.432;28.050;2022-07-03T02:19:05;101555.63;;;25.93;45.03
52291;BME280;39663;45.432;28.050;2022-07-03T02:19:46;101552.93;;;26.12;44.99
52291;BME280;39663;45.432;28.050;2022-07-03T02:20:20;101556.31;;;26.27;44.78
52291;BME280;39663;45.432;28.050;2022-07-03T02:21:10;101555.47;;;25.97;45.02
52291;BME280;39663;45.432;28.050;2022-07-03T02:21:48;101556.91;;;25.98;45.03
52291;BME280;39663;45.432;28.050;2022-07-03T02:22:25;101556.20;;;26.33;45.25
52291;BME280;39663;45.432;28.050;2022-07-03T02:22:57;101556.45;;;26.12;45.17
52291;BME280;39663;45.432;28.050;2022-07-03T02:23:32;101558.92;;;26.07;45.28
52291;BME280;39663;45.432;28.050;2022-07-03T02:24:19;101558.08;;;25.90;45.42
52291;BME280;39663;45.432;28.050;2022-07-03T02:24:51;101558.29;;;26.13;45.31
52291;BME280;39663;45.432;28.050;2022-07-03T02:25:25;101557.67;;;26.19;45.24
52291;BME280;39663;45.432;28.050;2022-07-03T02:26:02;101560.39;;;26.20;45.21
52291;BME280;39663;45.432;28.050;2022-07-03T02:26:38;101558.31;;;25.96;45.33
52291;BME280;39663;45.432;28.050;2022-07-03T02:27:15;101556.87;;;25.72;45.40
52291;BME280;39663;45.432;28.050;2022-07-03T02:27:55;101555.93;;;25.98;45.74
52291;BME280;39663;45.432;28.050;2022-07-03T02:28:34;101557.31;;;25.87;45.74
52291;BME280;39663;45.432;28.050;2022-07-03T02:29:15;101557.87;;;25.84;45.89
52291;BME280;39663;45.432;28.050;2022-07-03T02:29:51;101557.81;;;25.77;46.07
52291;BME280;39663;45.432;28.050;2022-07-03T02:30:27;101556.38;;;25.94;46.10
52291;BME280;39663;45.432;28.050;2022-07-03T02:31:02;101556.71;;;26.07;45.75
52291;BME280;39663;45.432;28.050;2022-07-03T02:31:38;101554.00;;;25.92;45.75
52291;BME280;39663;45.432;28.050;2022-07-03T02:32:15;101556.43;;;26.17;45.64
52291;BME280;39663;45.432;28.050;2022-07-03T02:32:52;101558.27;;;25.99;45.71
52291;BME280;39663;45.432;28.050;2022-07-03T02:33:26;101559.57;;;26.06;45.87
52291;BME280;39663;45.432;28.050;2022-07-03T02:34:00;101559.82;;;25.81;45.98
52291;BME280;39663;45.432;28.050;2022-07-03T02:34:34;101560.11;;;26.01;46.00
52291;BME280;39663;45.432;28.050;2022-07-03T02:35:10;101560.99;;;26.00;46.10
52291;BME280;39663;45.432;28.050;2022-07-03T02:35:42;101561.04;;;26.02;46.08
52291;BME280;39663;45.432;28.050;2022-07-03T02:36:17;101561.61;;;25.98;46.20
52291;BME280;39663;45.432;28.050;2022-07-03T02:36:57;101561.84;;;26.02;46.09
52291;BME280;39663;45.432;28.050;2022-07-03T02:37:34;101561.39;;;26.03;46.09
52291;BME280;39663;45.432;28.050;2022-07-03T02:38:11;101561.68;;;25.81;46.26
52291;BME280;39663;45.432;28.050;2022-07-03T02:38:54;101561.62;;;25.79;46.18
52291;BME280;39663;45.432;28.050;2022-07-03T02:39:32;101561.56;;;25.98;46.36
52291;BME280;39663;45.432;28.050;2022-07-03T02:40:14;101562.76;;;25.99;46.26
52291;BME280;39663;45.432;28.050;2022-07-03T02:40:57;101562.24;;;25.95;46.28
52291;BME280;39663;45.432;28.050;2022-07-03T02:41:42;101560.14;;;25.79;46.33
52291;BME280;39663;45.432;28.050;2022-07-03T02:42:29;101559.03;;;25.63;46.36
52291;BME280;39663;45.432;28.050;2022-07-03T02:43:14;101557.94;;;25.98;46.41
52291;BME280;39663;45.432;28.050;2022-07-03T02:43:59;101557.39;;;25.85;46.51
52291;BME280;39663;45.432;28.050;2022-07-03T02:44:38;101557.83;;;25.63;46.54
52291;BME280;39663;45.432;28.050;2022-07-03T02:45:13;101559.00;;;25.86;46.47
52291;BME280;39663;45.432;28.050;2022-07-03T02:45:49;101557.73;;;25.77;46.41
52291;BME280;39663;45.432;28.050;2022-07-03T02:46:31;101559.41;;;25.82;46.26
52291;BME280;39663;45.432;28.050;2022-07-03T02:47:11;101560.00;;;26.09;46.12
52291;BME280;39663;45.432;28.050;2022-07-03T02:47:51;101558.56;;;26.06;46.01
52291;BME280;39663;45.432;28.050;2022-07-03T02:48:33;101557.90;;;25.98;45.98
52291;BME280;39663;45.432;28.050;2022-07-03T02:49:14;101558.57;;;26.26;45.94
52291;BME280;39663;45.432;28.050;2022-07-03T02:49:58;101560.54;;;26.18;45.82
52291;BME280;39663;45.432;28.050;2022-07-03T02:50:31;101561.56;;;26.00;45.79
52291;BME280;39663;45.432;28.050;2022-07-03T02:51:13;101561.90;;;26.01;45.79
52291;BME280;39663;45.432;28.050;2022-07-03T02:51:54;101561.26;;;26.10;45.89
52291;BME280;39663;45.432;28.050;2022-07-03T02:52:37;101559.35;;;26.13;45.83
52291;BME280;39663;45.432;28.050;2022-07-03T02:53:20;101558.86;;;25.99;45.70
52291;BME280;39663;45.432;28.050;2022-07-03T02:53:56;101557.87;;;25.92;46.04
52291;BME280;39663;45.432;28.050;2022-07-03T02:54:32;101558.75;;;26.08;45.81
52291;BME280;39663;45.432;28.050;2022-07-03T02:55:22;101558.60;;;25.85;45.52
52291;BME280;39663;45.432;28.050;2022-07-03T02:56:05;101558.66;;;26.18;45.24
52291;BME280;39663;45.432;28.050;2022-07-03T02:56:51;101558.33;;;26.08;44.85
52291;BME280;39663;45.432;28.050;2022-07-03T02:58:20;101556.94;;;26.08;45.31
52291;BME280;39663;45.432;28.050;2022-07-03T02:59:06;101558.61;;;26.12;45.00
52291;BME280;39663;45.432;28.050;2022-07-03T02:59:52;101556.92;;;26.10;45.17
52291;BME280;39663;45.432;28.050;2022-07-03T03:00:24;101557.22;;;25.88;45.22
52291;BME280;39663;45.432;28.050;2022-07-03T03:00:59;101555.46;;;25.95;45.08
52291;BME280;39663;45.432;28.050;2022-07-03T03:01:37;101556.27;;;25.98;45.01
52291;BME280;39663;45.432;28.050;2022-07-03T03:02:16;101556.55;;;26.12;44.82
52291;BME280;39663;45.432;28.050;2022-07-03T03:02:53;101557.55;;;26.08;44.83
52291;BME280;39663;45.432;28.050;2022-07-03T03:03:27;101555.93;;;26.09;44.78
52291;BME280;39663;45.432;28.050;2022-07-03T03:04:09;101555.47;;;26.15;44.71
52291;BME280;39663;45.432;28.050;2022-07-03T03:04:43;101557.61;;;26.12;44.68
52291;BME280;39663;45.432;28.050;2022-07-03T03:05:26;101558.30;;;26.06;44.59
52291;BME280;39663;45.432;28.050;2022-07-03T03:06:03;101559.23;;;26.34;44.53
52291;BME280;39663;45.432;28.050;2022-07-03T03:06:37;101559.33;;;26.23;44.64
52291;BME280;39663;45.432;28.050;2022-07-03T03:07:13;101560.90;;;26.21;44.72
52291;BME280;39663;45.432;28.050;2022-07-03T03:07:54;101562.30;;;26.29;44.72
52291;BME280;39663;45.432;28.050;2022-07-03T03:08:35;101562.00;;;26.08;44.74
52291;BME280;39663;45.432;28.050;2022-07-03T03:09:13;101561.51;;;26.42;44.58
52291;BME280;39663;45.432;28.050;2022-07-03T03:09:47;101563.69;;;26.30;44.51
52291;BME280;39663;45.432;28.050;2022-07-03T03:10:20;101561.92;;;26.08;44.50
52291;BME280;39663;45.432;28.050;2022-07-03T03:10:51;101562.37;;;26.56;44.62
52291;BME280;39663;45.432;28.050;2022-07-03T03:11:43;101563.51;;;26.37;44.68
52291;BME280;39663;45.432;28.050;2022-07-03T03:12:17;101563.92;;;26.60;44.65
52291;BME280;39663;45.432;28.050;2022-07-03T03:13:03;101564.14;;;26.50;44.50
52291;BME280;39663;45.432;28.050;2022-07-03T03:13:35;101563.21;;;26.18;44.64
52291;BME280;39663;45.432;28.050;2022-07-03T03:14:10;101562.64;;;26.40;44.70
52291;BME280;39663;45.432;28.050;2022-07-03T03:14:44;101561.33;;;26.54;44.77
52291;BME280;39663;45.432;28.050;2022-07-03T03:15:16;101562.16;;;26.18;44.89
52291;BME280;39663;45.432;28.050;2022-07-03T03:15:58;101559.54;;;26.18;44.90
52291;BME280;39663;45.432;28.050;2022-07-03T03:16:32;101561.13;;;26.12;45.32
52291;BME280;39663;45.432;28.050;2022-07-03T03:17:06;101561.98;;;25.82;45.64
52291;BME280;39663;45.432;28.050;2022-07-03T03:17:43;101561.10;;;25.96;45.73
52291;BME280;39663;45.432;28.050;2022-07-03T03:18:21;101561.49;;;26.25;45.51
52291;BME280;39663;45.432;28.050;2022-07-03T03:18:53;101562.12;;;25.99;45.31
52291;BME280;39663;45.432;28.050;2022-07-03T03:19:25;101561.97;;;26.20;45.30
52291;BME280;39663;45.432;28.050;2022-07-03T03:19:56;101561.99;;;26.25;45.20
52291;BME280;39663;45.432;28.050;2022-07-03T03:20:31;101561.54;;;26.40;45.03
52291;BME280;39663;45.432;28.050;2022-07-03T03:21:08;101559.92;;;26.25;44.89
52291;BME280;39663;45.432;28.050;2022-07-03T03:21:45;101558.33;;;26.54;44.74
52291;BME280;39663;45.432;28.050;2022-07-03T03:22:28;101559.21;;;26.55;44.93
52291;BME280;39663;45.432;28.050;2022-07-03T03:23:15;101561.20;;;26.73;44.86
52291;BME280;39663;45.432;28.050;2022-07-03T03:23:49;101559.05;;;26.34;44.80
52291;BME280;39663;45.432;28.050;2022-07-03T03:24:22;101559.00;;;26.59;44.77
52291;BME280;39663;45.432;28.050;2022-07-03T03:24:55;101559.50;;;26.37;44.90
52291;BME280;39663;45.432;28.050;2022-07-03T03:25:26;101560.40;;;26.37;44.64
52291;BME280;39663;45.432;28.050;2022-07-03T03:25:58;101560.71;;;26.41;44.55
52291;BME280;39663;45.432;28.050;2022-07-03T03:26:30;101562.75;;;26.53;44.45
52291;BME280;39663;45.432;28.050;2022-07-03T03:27:02;101562.32;;;26.64;44.51
52291;BME280;39663;45.432;28.050;2022-07-03T03:27:34;101560.81;;;26.49;44.53
52291;BME280;39663;45.432;28.050;2022-07-03T03:28:05;101565.15;;;26.37;45.11
52291;BME280;39663;45.432;28.050;2022-07-03T03:28:37;101562.52;;;26.37;44.70
52291;BME280;39663;45.432;28.050;2022-07-03T03:29:09;101563.06;;;26.65;44.50
52291;BME280;39663;45.432;28.050;2022-07-03T03:29:41;101560.71;;;26.78;44.46
52291;BME280;39663;45.432;28.050;2022-07-03T03:30:12;101564.55;;;26.29;44.98
52291;BME280;39663;45.432;28.050;2022-07-03T03:30:44;101565.75;;;26.02;45.10
52291;BME280;39663;45.432;28.050;2022-07-03T03:31:16;101564.48;;;26.14;45.07
52291;BME280;39663;45.432;28.050;2022-07-03T03:31:47;101566.69;;;26.39;44.89
52291;BME280;39663;45.432;28.050;2022-07-03T03:32:19;101564.76;;;26.38;44.86
52291;BME280;39663;45.432;28.050;2022-07-03T03:32:52;101564.75;;;26.46;44.56